Time;durP1;ratioP1;P1;durP2;ratioP2;P2;SDS_P1;SDS_P2;PMS_P1;PMS_P2;Temp;Humidity;BMP_temperature;BMP_pressure;BME280_temperature;BME280_humidity;BME280_pressure;Samples;Min_cycle;Max_cycle;Signal;HPM_P1;HPM_P2
2023/10/25 00:00:51;;;;;;;28.58;24.33;;;;;;;11.16;92.28;97132.53;5109571;27;20476;-71
2023/10/25 00:03:17;;;;;;;30.20;24.63;;;;;;;11.13;92.34;97133.09;5052786;28;20639;-70
2023/10/25 00:05:44;;;;;;;33.63;27.55;;;;;;;11.20;91.98;97130.94;5120845;27;20126;-71
2023/10/25 00:08:10;;;;;;;27.33;22.88;;;;;;;11.27;91.71;97129.53;5126518;27;20037;-70
2023/10/25 00:10:36;;;;;;;30.73;25.13;;;;;;;11.28;91.69;97131.16;5089532;28;20412;-72
2023/10/25 00:13:02;;;;;;;36.08;27.52;;;;;;;11.27;92.24;97134.13;5088899;28;20031;-72
2023/10/25 00:15:27;;;;;;;39.65;28.42;;;;;;;11.33;91.71;97133.84;5085338;27;20481;-72
2023/10/25 00:17:53;;;;;;;40.17;28.00;;;;;;;11.34;91.29;97130.03;5123922;27;20070;-71
2023/10/25 00:20:18;;;;;;;39.10;28.45;;;;;;;11.35;91.59;97137.06;5111647;28;20055;-72
2023/10/25 00:22:44;;;;;;;28.33;24.02;;;;;;;11.36;91.60;97143.25;5129043;27;20513;-71
2023/10/25 00:25:09;;;;;;;41.25;29.00;;;;;;;11.32;91.45;97126.03;5071106;28;20021;-72
2023/10/25 00:27:35;;;;;;;32.88;25.55;;;;;;;11.43;91.34;97144.59;5070706;28;20040;-71
2023/10/25 00:30:01;;;;;;;36.05;27.05;;;;;;;11.49;91.32;97148.06;5099275;27;20027;-73
2023/10/25 00:32:27;;;;;;;32.03;25.52;;;;;;;11.52;91.39;97147.53;5125689;27;20050;-72
2023/10/25 00:34:53;;;;;;;30.50;25.92;;;;;;;11.54;90.85;97156.13;5132351;27;20019;-73
2023/10/25 00:37:21;;;;;;;31.98;25.58;;;;;;;11.54;91.17;97146.16;5112033;27;20042;-71
2023/10/25 00:39:50;;;;;;;57.67;32.90;;;;;;;11.56;90.82;97153.97;5089402;27;20099;-71
2023/10/25 00:42:18;;;;;;;49.75;31.17;;;;;;;11.51;90.81;97151.28;5138229;27;20027;-71
2023/10/25 00:44:45;;;;;;;53.78;32.28;;;;;;;11.47;90.70;97155.63;5087356;28;20047;-71
2023/10/25 00:47:10;;;;;;;50.03;30.80;;;;;;;11.46;90.93;97148.63;5090461;28;20067;-71
2023/10/25 00:49:36;;;;;;;66.43;34.72;;;;;;;11.38;90.69;97143.78;5093804;28;20028;-71
2023/10/25 00:52:02;;;;;;;58.83;34.50;;;;;;;11.26;91.44;97135.19;5076480;28;20117;-71
2023/10/25 00:54:28;;;;;;;44.55;28.77;;;;;;;11.35;90.98;97149.72;5096123;28;20049;-71
2023/10/25 00:56:55;;;;;;;50.90;30.10;;;;;;;11.35;90.73;97141.63;5075849;28;20567;-71
2023/10/25 00:59:21;;;;;;;54.42;31.60;;;;;;;11.35;90.67;97155.13;5082605;28;20042;-70
2023/10/25 01:01:47;;;;;;;58.13;32.45;;;;;;;11.33;90.81;97143.81;5070790;28;20512;-72
2023/10/25 01:04:13;;;;;;;45.42;28.35;;;;;;;11.15;91.02;97128.25;5102127;28;20469;-71
2023/10/25 01:06:39;;;;;;;66.03;33.20;;;;;;;11.18;90.58;97141.16;5104877;27;20046;-71
2023/10/25 01:09:04;;;;;;;33.88;23.48;;;;;;;11.15;90.39;97125.53;5135264;27;20023;-70
2023/10/25 01:11:30;;;;;;;39.10;27.08;;;;;;;11.16;90.10;97127.13;5102241;28;20118;-71
2023/10/25 01:13:56;;;;;;;45.83;28.30;;;;;;;11.09;90.23;97122.84;5086673;28;20057;-71
2023/10/25 01:16:21;;;;;;;33.03;23.70;;;;;;;11.02;90.47;97122.34;5083449;28;20362;-70
2023/10/25 01:18:47;;;;;;;34.10;24.48;;;;;;;10.83;90.69;97102.44;5108177;27;20043;-70
2023/10/25 01:21:13;;;;;;;33.80;25.33;;;;;;;10.88;90.33;97102.44;5082674;28;20046;-71
2023/10/25 01:23:39;;;;;;;33.65;24.95;;;;;;;10.98;90.20;97115.88;5103969;27;20026;-70
2023/10/25 01:26:05;;;;;;;36.67;25.27;;;;;;;10.93;89.76;97110.50;5101133;28;20035;-69
2023/10/25 01:28:30;;;;;;;34.28;25.20;;;;;;;10.93;89.91;97107.00;5060222;28;20085;-69
2023/10/25 01:30:56;;;;;;;33.03;24.08;;;;;;;10.88;89.83;97101.63;5114215;28;20043;-69
2023/10/25 01:33:22;;;;;;;29.00;22.52;;;;;;;10.91;89.39;97109.16;5095754;28;20441;-68
2023/10/25 01:35:51;;;;;;;32.22;23.13;;;;;;;10.90;89.61;97102.97;5095668;28;20038;-69
2023/10/25 01:38:17;;;;;;;37.88;25.95;;;;;;;10.85;89.17;97102.97;5083139;28;20408;-69
2023/10/25 01:40:42;;;;;;;29.20;23.23;;;;;;;10.85;89.22;97102.97;5089109;27;20058;-69
2023/10/25 01:43:08;;;;;;;32.08;25.17;;;;;;;10.80;89.15;97097.63;5108513;28;20047;-69
2023/10/25 01:45:33;;;;;;;34.60;25.98;;;;;;;10.68;88.99;97083.63;5128674;27;20530;-70
2023/10/25 01:47:59;;;;;;;34.55;25.48;;;;;;;10.77;88.75;97098.16;5108698;28;20030;-70
2023/10/25 01:50:24;;;;;;;29.90;24.20;;;;;;;10.76;88.90;97101.91;5113868;28;20118;-70
2023/10/25 01:52:50;;;;;;;32.40;24.50;;;;;;;10.74;88.74;97090.63;5113638;28;20081;-69
2023/10/25 01:55:15;;;;;;;31.80;23.45;;;;;;;10.77;88.61;97098.16;5109407;27;20138;-70
2023/10/25 01:57:42;;;;;;;28.23;22.50;;;;;;;10.76;88.51;97091.16;5075082;28;20046;-70
2023/10/25 02:00:08;;;;;;;42.15;27.55;;;;;;;10.73;88.76;97097.09;5082224;28;20425;-69
2023/10/25 02:02:40;;;;;;;40.15;26.38;;;;;;;10.71;88.51;97103.81;5097527;28;20030;-71
2023/10/25 02:05:05;;;;;;;31.63;23.65;;;;;;;10.67;88.85;97098.16;5082285;28;20039;-71
2023/10/25 02:07:31;;;;;;;31.60;22.30;;;;;;;10.63;88.53;97089.03;5057997;28;20016;-72
2023/10/25 02:09:57;;;;;;;32.22;23.38;;;;;;;10.63;88.69;97086.34;5088559;28;20046;-71
2023/10/25 02:12:23;;;;;;;33.55;22.65;;;;;;;10.65;88.74;97094.94;5074351;28;20023;-72
2023/10/25 02:14:48;;;;;;;40.58;25.17;;;;;;;10.61;88.87;97093.88;5106261;28;20036;-71
2023/10/25 02:17:14;;;;;;;26.50;20.95;;;;;;;10.65;88.41;97100.31;5074925;28;20020;-73
2023/10/25 02:19:40;;;;;;;37.58;24.52;;;;;;;10.60;88.48;97097.63;5072121;28;20035;-72
2023/10/25 02:22:05;;;;;;;39.03;24.42;;;;;;;10.55;88.70;97099.53;5077203;28;20036;-72
2023/10/25 02:24:30;;;;;;;61.88;30.33;;;;;;;10.54;88.70;97098.72;5078312;28;20035;-70
2023/10/25 02:26:56;;;;;;;51.05;27.05;;;;;;;10.52;88.31;97106.28;5095078;28;20031;-73
2023/10/25 02:29:22;;;;;;;273.80;39.97;;;;;;;10.37;88.09;97108.97;5058223;28;20467;-73
2023/10/25 02:31:47;;;;;;;224.50;41.53;;;;;;;10.33;88.43;97103.31;5094479;28;20024;-73
2023/10/25 02:34:13;;;;;;;379.02;49.75;;;;;;;10.22;87.78;97095.53;5094647;28;20031;-73
2023/10/25 02:36:38;;;;;;;352.63;46.50;;;;;;;10.20;88.14;97098.47;5074673;28;20059;-73
2023/10/25 02:39:04;;;;;;;250.07;38.58;;;;;;;10.23;87.61;97102.50;5051375;28;20388;-73
2023/10/25 02:41:29;;;;;;;146.75;35.03;;;;;;;10.25;87.66;97111.09;5093889;28;20382;-72
2023/10/25 02:43:56;;;;;;;247.90;34.17;;;;;;;10.02;87.73;97096.28;5094754;28;20536;-74
2023/10/25 02:46:22;;;;;;;26.00;19.77;;;;;;;9.96;88.02;97080.41;5085348;28;20023;-72
2023/10/25 02:48:47;;;;;;;53.47;26.58;;;;;;;10.15;87.47;97111.91;5115058;28;20034;-71
2023/10/25 02:51:13;;;;;;;127.50;35.08;;;;;;;10.04;87.72;97087.91;5115190;28;20470;-71
2023/10/25 02:53:38;;;;;;;47.28;26.65;;;;;;;10.15;87.97;97094.97;5114604;28;20498;-71
2023/10/25 02:56:05;;;;;;;56.83;28.25;;;;;;;10.27;87.96;97108.94;5115194;28;20023;-72
2023/10/25 02:58:31;;;;;;;32.28;22.95;;;;;;;10.22;87.99;97101.69;5098120;28;20074;-73
2023/10/25 03:00:57;;;;;;;56.10;26.70;;;;;;;10.11;89.08;97100.06;5068516;28;20170;-72
2023/10/25 03:03:23;;;;;;;31.05;22.48;;;;;;;10.10;88.62;97086.88;5071218;28;20380;-72
2023/10/25 03:05:48;;;;;;;73.07;34.42;;;;;;;10.24;88.93;97104.94;5090423;28;20024;-72
2023/10/25 03:08:14;;;;;;;56.25;28.70;;;;;;;10.20;88.88;97097.66;5073529;28;20491;-71
2023/10/25 03:10:39;;;;;;;60.45;31.83;;;;;;;10.28;89.19;97105.19;5073756;28;20097;-70
2023/10/25 03:13:05;;;;;;;47.47;28.02;;;;;;;10.42;89.49;97117.03;5070175;28;20027;-72
2023/10/25 03:15:30;;;;;;;62.88;32.22;;;;;;;10.46;89.64;97110.03;5060938;28;20444;-71
2023/10/25 03:17:55;;;;;;;54.72;30.00;;;;;;;10.41;89.70;97099.25;5097076;28;20043;-69
2023/10/25 03:20:21;;;;;;;42.83;27.58;;;;;;;10.57;90.01;97113.53;5096705;28;20590;-71
2023/10/25 03:22:46;;;;;;;59.55;31.88;;;;;;;10.57;90.10;97103.56;5087544;27;20035;-71
2023/10/25 03:25:11;;;;;;;73.88;33.67;;;;;;;10.61;90.20;97104.66;5094544;28;20020;-70
2023/10/25 03:27:37;;;;;;;96.05;38.50;;;;;;;10.49;90.16;97089.84;5066802;28;20034;-71
2023/10/25 03:30:03;;;;;;;54.33;28.95;;;;;;;10.62;90.18;97100.84;5094149;28;20023;-71
2023/10/25 03:32:29;;;;;;;89.20;37.22;;;;;;;10.58;90.24;97094.41;5108199;28;20043;-72
2023/10/25 03:34:54;;;;;;;52.80;30.20;;;;;;;10.56;90.36;97085.81;5097467;28;20028;-71
2023/10/25 03:37:20;;;;;;;50.72;30.83;;;;;;;10.64;90.34;97093.31;5080482;28;20384;-72
2023/10/25 03:39:45;;;;;;;52.95;29.77;;;;;;;10.58;90.72;97072.06;5097406;28;20023;-71
2023/10/25 03:42:10;;;;;;;58.92;32.95;;;;;;;10.67;90.68;97097.34;5097407;28;20498;-70
2023/10/25 03:44:36;;;;;;;56.40;32.40;;;;;;;10.66;90.53;97088.50;5115645;28;20054;-70
2023/10/25 03:47:03;;;;;;;99.07;39.13;;;;;;;10.67;90.80;97090.09;5109721;27;20035;-70
2023/10/25 03:49:29;;;;;;;74.05;34.92;;;;;;;10.58;90.85;97083.63;5117286;27;20470;-69
2023/10/25 03:51:54;;;;;;;109.25;40.08;;;;;;;10.53;90.53;97089.03;5116941;27;20031;-70
2023/10/25 03:54:19;;;;;;;91.35;38.38;;;;;;;10.46;90.73;97093.88;5117538;27;20023;-71
2023/10/25 03:56:45;;;;;;;77.18;34.53;;;;;;;10.44;90.46;97087.97;5100598;27;20193;-71
2023/10/25 03:59:11;;;;;;;83.85;36.30;;;;;;;10.44;90.54;97093.34;5131591;27;20027;-71
2023/10/25 04:01:38;;;;;;;59.28;32.33;;;;;;;10.43;90.25;97087.16;5101886;28;20028;-71
2023/10/25 04:04:03;;;;;;;66.30;35.17;;;;;;;10.39;90.15;97080.69;5096488;28;20028;-71
2023/10/25 04:06:29;;;;;;;54.60;33.60;;;;;;;10.42;90.19;97060.50;5096550;28;20050;-71
2023/10/25 04:08:54;;;;;;;81.88;37.40;;;;;;;10.52;90.27;97073.97;5096370;28;20024;-71
2023/10/25 04:11:20;;;;;;;92.03;40.50;;;;;;;10.58;90.06;97054.03;5096235;28;20089;-71
2023/10/25 04:13:45;;;;;;;67.97;35.00;;;;;;;10.58;90.41;97051.34;5096611;28;20023;-70
2023/10/25 04:16:10;;;;;;;71.35;37.17;;;;;;;10.57;90.48;97048.94;5096981;28;20059;-70
2023/10/25 04:18:39;;;;;;;51.85;32.35;;;;;;;10.70;90.15;97051.84;5114957;28;20036;-70
2023/10/25 04:21:09;;;;;;;54.60;34.33;;;;;;;10.76;90.25;97048.06;5114878;28;20493;-70
2023/10/25 04:23:35;;;;;;;54.15;34.10;;;;;;;10.80;90.24;97054.53;5096244;28;20547;-71
2023/10/25 04:26:10;;;;;;;90.97;42.70;;;;;;;10.79;90.21;97052.91;5114523;28;20103;-70
2023/10/25 04:28:43;;;;;;;94.22;44.85;;;;;;;10.82;90.86;97065.84;5075087;28;20032;-71
2023/10/25 04:31:09;;;;;;;67.05;38.97;;;;;;;10.80;91.03;97051.03;5110602;28;20039;-70
2023/10/25 04:33:36;;;;;;;113.55;44.30;;;;;;;10.73;91.11;97043.25;5114679;28;20027;-71
2023/10/25 04:36:03;;;;;;;130.15;43.08;;;;;;;10.60;90.95;97040.28;5077835;27;20437;-70
2023/10/25 04:38:29;;;;;;;106.60;42.55;;;;;;;10.68;91.26;97056.72;5116867;27;20091;-71
2023/10/25 04:40:55;;;;;;;121.75;48.33;;;;;;;10.55;91.34;97041.09;5116720;27;20031;-71
2023/10/25 04:43:20;;;;;;;124.43;52.17;;;;;;;10.63;91.11;97054.03;5134417;27;20033;-71
2023/10/25 04:45:46;;;;;;;67.65;39.70;;;;;;;10.67;91.52;97052.38;5122125;27;20487;-71
2023/10/25 04:48:11;;;;;;;86.75;42.78;;;;;;;10.61;91.56;97034.66;5114073;28;20019;-70
2023/10/25 04:50:37;;;;;;;87.45;44.78;;;;;;;10.69;92.11;97036.75;5093716;28;20507;-71
2023/10/25 04:53:03;;;;;;;111.25;49.38;;;;;;;10.80;91.86;97042.94;5075186;28;20028;-71
2023/10/25 04:55:36;;;;;;;129.82;49.75;;;;;;;10.75;92.07;97030.31;5090431;28;20127;-71
2023/10/25 04:58:02;;;;;;;142.18;52.80;;;;;;;10.86;92.30;97037.25;5096359;28;20396;-71
2023/10/25 05:00:28;;;;;;;106.55;47.08;;;;;;;10.85;91.94;97024.09;5095741;28;20024;-72
2023/10/25 05:02:54;;;;;;;118.35;53.20;;;;;;;10.89;91.96;97023.25;5078703;28;20093;-72
2023/10/25 05:05:20;;;;;;;132.70;57.90;;;;;;;10.92;91.82;97041.53;5095412;28;20466;-71
2023/10/25 05:07:46;;;;;;;123.93;52.83;;;;;;;10.84;92.22;97042.13;5095766;28;20106;-72
2023/10/25 05:10:12;;;;;;;146.40;53.10;;;;;;;10.75;92.86;97034.88;5078888;28;20024;-73
2023/10/25 05:12:47;;;;;;;181.70;56.17;;;;;;;10.73;92.74;97040.53;5095313;28;20050;-72
2023/10/25 05:15:15;;;;;;;235.52;61.55;;;;;;;10.63;93.05;97026.28;5095960;28;20047;-71
2023/10/25 05:17:44;;;;;;;167.52;57.13;;;;;;;10.69;93.14;97035.97;5095272;28;20051;-71
2023/10/25 05:20:10;;;;;;;142.43;52.42;;;;;;;10.70;93.13;97016.03;5095268;28;20119;-71
2023/10/25 05:22:38;;;;;;;142.05;49.53;;;;;;;10.80;92.95;97022.22;5112988;28;20556;-72
2023/10/25 05:25:05;;;;;;;135.32;50.58;;;;;;;10.84;92.85;97023.28;5113384;28;20036;-72
2023/10/25 05:27:32;;;;;;;91.95;44.63;;;;;;;10.88;92.40;97026.22;5094921;28;20064;-69
2023/10/25 05:30:03;;;;;;;142.38;52.42;;;;;;;10.88;92.71;97021.63;5084308;27;20046;-73
2023/10/25 05:32:32;;;;;;;106.88;46.88;;;;;;;10.83;92.72;97020.84;5098877;27;20042;-71
2023/10/25 05:35:00;;;;;;;115.28;47.00;;;;;;;10.73;92.64;97005.53;5133830;27;20116;-72
2023/10/25 05:37:27;;;;;;;128.15;50.03;;;;;;;10.82;92.83;97017.34;5133195;27;20035;-71
2023/10/25 05:39:52;;;;;;;116.75;48.30;;;;;;;10.76;93.12;97021.13;5115001;27;20023;-72
2023/10/25 05:42:19;;;;;;;102.47;43.75;;;;;;;10.67;92.70;97006.63;5096277;28;20521;-72
2023/10/25 05:44:48;;;;;;;99.03;43.45;;;;;;;10.62;92.93;97009.31;5095380;28;20026;-70
2023/10/25 05:47:18;;;;;;;102.22;43.28;;;;;;;10.71;92.56;97018.44;5097570;28;20042;-72
2023/10/25 05:49:44;;;;;;;98.72;42.05;;;;;;;10.60;93.08;97013.38;5077240;28;20043;-72
2023/10/25 05:52:10;;;;;;;92.18;40.92;;;;;;;10.73;92.97;97027.09;5093423;28;20032;-72
2023/10/25 05:54:36;;;;;;;92.15;41.88;;;;;;;10.77;92.52;97021.94;5061005;28;20112;-71
2023/10/25 05:57:03;;;;;;;120.40;46.70;;;;;;;10.78;92.65;97029.72;5097416;28;20444;-72
2023/10/25 05:59:28;;;;;;;75.28;39.30;;;;;;;10.78;92.57;97029.72;5094252;28;20034;-72
2023/10/25 06:02:09;;;;;;;94.70;42.35;;;;;;;10.83;92.60;97029.72;5092555;28;20023;-72
2023/10/25 06:04:36;;;;;;;126.55;48.00;;;;;;;10.86;92.75;97031.06;5092390;28;20112;-72
2023/10/25 06:07:02;;;;;;;131.52;48.00;;;;;;;10.84;92.53;97025.97;5094676;28;20061;-71
2023/10/25 06:09:27;;;;;;;135.40;49.70;;;;;;;10.83;92.76;97013.56;5076778;28;20027;-71
2023/10/25 06:11:53;;;;;;;85.10;44.05;;;;;;;10.93;92.68;97010.84;5083211;27;20024;-72
2023/10/25 06:14:18;;;;;;;143.48;53.10;;;;;;;10.95;92.56;97008.69;5096648;28;20096;-72
2023/10/25 06:16:44;;;;;;;181.57;56.70;;;;;;;10.83;92.88;96994.72;5087878;28;20018;-73
2023/10/25 06:19:09;;;;;;;138.13;50.33;;;;;;;10.95;92.44;97016.75;5094968;28;20445;-72
2023/10/25 06:21:35;;;;;;;101.18;45.55;;;;;;;10.95;92.52;97011.38;5073942;28;20138;-73
2023/10/25 06:24:00;;;;;;;154.57;52.53;;;;;;;10.94;91.95;97017.03;5077356;28;20032;-70
2023/10/25 06:26:25;;;;;;;117.53;49.58;;;;;;;10.89;92.64;97004.41;5070508;28;20430;-70
2023/10/25 06:28:51;;;;;;;138.52;53.80;;;;;;;11.03;92.39;97015.38;5096179;28;20114;-70
2023/10/25 06:31:16;;;;;;;125.93;51.05;;;;;;;10.94;93.04;97017.84;5087149;28;20077;-70
2023/10/25 06:33:42;;;;;;;116.75;50.25;;;;;;;10.98;92.81;97018.91;5076478;28;20066;-70
2023/10/25 06:36:09;;;;;;;100.15;47.05;;;;;;;11.03;92.65;97031.56;5098707;28;20050;-70
2023/10/25 06:38:34;;;;;;;108.68;48.22;;;;;;;10.98;92.56;97028.88;5089168;28;20033;-70
2023/10/25 06:41:00;;;;;;;109.32;48.10;;;;;;;11.00;92.83;97034.78;5099417;28;20367;-70
2023/10/25 06:43:30;;;;;;;89.47;44.08;;;;;;;10.88;93.21;97037.78;5085180;28;20054;-71
2023/10/25 06:45:56;;;;;;;102.13;45.20;;;;;;;10.94;93.39;97049.38;5080972;28;20024;-72
2023/10/25 06:48:22;;;;;;;107.75;46.60;;;;;;;10.93;93.20;97032.41;5070532;28;20045;-72
2023/10/25 06:50:47;;;;;;;90.53;44.33;;;;;;;11.01;92.79;97042.63;5091300;28;20022;-72
2023/10/25 06:53:13;;;;;;;80.28;43.63;;;;;;;11.00;92.89;97032.91;5076056;28;20497;-71
2023/10/25 06:55:39;;;;;;;70.25;40.08;;;;;;;11.03;92.72;97029.66;5089828;28;20093;-70
2023/10/25 06:58:04;;;;;;;68.78;39.85;;;;;;;11.15;92.56;97050.09;5092879;28;20047;-70
2023/10/25 07:00:30;;;;;;;77.80;41.75;;;;;;;11.13;92.57;97036.09;5090438;28;20044;-72
2023/10/25 07:03:01;;;;;;;81.40;44.00;;;;;;;11.15;92.02;97025.84;5094081;28;20043;-72
2023/10/25 07:05:28;;;;;;;63.65;40.35;;;;;;;11.25;92.15;97039.28;5094781;28;20047;-72
2023/10/25 07:07:53;;;;;;;66.57;40.97;;;;;;;11.25;92.26;97036.59;5078082;28;20028;-72
2023/10/25 07:10:20;;;;;;;63.88;39.80;;;;;;;11.24;92.33;97037.66;5093819;28;20033;-72
2023/10/25 07:12:46;;;;;;;65.53;41.03;;;;;;;11.34;92.26;97034.91;5092788;28;20033;-72
2023/10/25 07:15:11;;;;;;;73.13;42.38;;;;;;;11.25;91.87;97023.09;5093973;28;20031;-71
2023/10/25 07:17:38;;;;;;;78.43;44.00;;;;;;;11.30;92.04;97020.38;5093146;28;20438;-72
2023/10/25 07:20:07;;;;;;;70.63;41.08;;;;;;;11.49;92.02;97024.03;5094031;28;20043;-72
2023/10/25 07:22:32;;;;;;;67.13;40.22;;;;;;;11.48;91.87;97017.06;5060165;28;20015;-72
2023/10/25 07:24:58;;;;;;;74.88;42.20;;;;;;;11.55;91.83;97006.75;5094212;28;20034;-72
2023/10/25 07:27:23;;;;;;;106.20;51.50;;;;;;;11.57;91.80;97015.38;5095939;28;20451;-72
2023/10/25 07:29:49;;;;;;;84.55;46.95;;;;;;;11.62;91.76;97001.88;5089836;28;20578;-71
2023/10/25 07:32:15;;;;;;;79.78;46.25;;;;;;;11.73;91.39;97004.25;5092035;28;20526;-72
2023/10/25 07:34:41;;;;;;;72.00;42.47;;;;;;;11.83;92.01;97008.75;5100958;28;20422;-71
2023/10/25 07:37:06;;;;;;;72.60;43.80;;;;;;;11.77;91.69;97002.59;5093205;28;20028;-72
2023/10/25 07:39:32;;;;;;;76.95;45.42;;;;;;;11.79;91.25;97007.69;5093268;28;20445;-72
2023/10/25 07:41:57;;;;;;;67.07;43.00;;;;;;;11.86;90.89;97007.38;5091279;28;20027;-71
2023/10/25 07:44:23;;;;;;;67.82;43.55;;;;;;;11.95;91.40;97006.47;5098367;28;20102;-72
2023/10/25 07:46:48;;;;;;;72.93;44.70;;;;;;;11.83;91.49;96997.97;5132043;28;20027;-72
2023/10/25 07:49:14;;;;;;;74.90;45.58;;;;;;;11.92;91.09;96996.28;5091448;28;20131;-71
2023/10/25 07:51:39;;;;;;;57.03;39.90;;;;;;;11.86;91.57;96994.69;5083470;28;20157;-72
2023/10/25 07:54:04;;;;;;;53.80;37.30;;;;;;;11.88;90.78;96992.50;5092564;28;20035;-72
2023/10/25 07:56:30;;;;;;;58.63;39.40;;;;;;;11.85;89.84;96985.00;5072386;28;20554;-72
2023/10/25 07:58:55;;;;;;;56.95;39.63;;;;;;;11.98;90.50;96989.75;5073223;28;20085;-71
2023/10/25 08:01:21;;;;;;;65.35;41.78;;;;;;;12.06;89.73;96986.44;5082893;28;20019;-72
2023/10/25 08:03:46;;;;;;;57.42;40.15;;;;;;;12.19;89.97;96982.25;5095066;28;20430;-72
2023/10/25 08:06:11;;;;;;;65.43;42.05;;;;;;;12.09;89.93;96953.47;5114552;28;20106;-71
2023/10/25 08:08:38;;;;;;;58.13;42.78;;;;;;;12.25;89.95;96957.63;5075873;28;20400;-73
2023/10/25 08:11:05;;;;;;;60.10;42.60;;;;;;;12.44;89.85;96982.00;5090346;27;20429;-71
2023/10/25 08:13:32;;;;;;;57.38;40.30;;;;;;;12.35;89.65;96971.03;5116642;27;20080;-72
2023/10/25 08:15:58;;;;;;;55.10;40.75;;;;;;;12.42;89.61;96958.00;5116652;27;20023;-72
2023/10/25 08:18:26;;;;;;;55.15;39.13;;;;;;;12.48;89.34;96964.16;5110691;27;20031;-71
2023/10/25 08:20:51;;;;;;;54.92;38.80;;;;;;;12.61;88.50;96970.75;5107310;27;20034;-72
2023/10/25 08:23:16;;;;;;;46.50;35.90;;;;;;;12.61;88.72;96960.78;5116054;27;20031;-72
2023/10/25 08:25:42;;;;;;;48.53;35.40;;;;;;;12.74;88.03;96962.78;5099463;27;20474;-72
2023/10/25 08:28:07;;;;;;;43.33;33.67;;;;;;;12.86;88.23;96957.00;5116505;27;20042;-72
2023/10/25 08:30:32;;;;;;;39.47;31.73;;;;;;;13.00;87.49;96952.47;5134775;27;20023;-72
2023/10/25 08:32:58;;;;;;;41.53;32.13;;;;;;;13.02;86.79;96953.00;5115540;27;20046;-72
2023/10/25 08:35:23;;;;;;;46.47;34.53;;;;;;;13.03;87.30;96946.47;5097971;28;20030;-72
2023/10/25 08:37:49;;;;;;;43.20;34.25;;;;;;;13.11;86.77;96943.19;5113262;27;20102;-72
2023/10/25 08:40:15;;;;;;;42.35;32.63;;;;;;;13.04;86.64;96953.50;5116368;27;20413;-72
2023/10/25 08:42:40;;;;;;;38.88;32.47;;;;;;;13.14;86.66;96950.69;5099033;27;20035;-72
2023/10/25 08:45:06;;;;;;;45.10;34.55;;;;;;;13.01;87.09;96943.25;5134628;27;20027;-72
2023/10/25 08:47:32;;;;;;;42.65;33.08;;;;;;;12.95;86.57;96947.13;5108179;28;20036;-72
2023/10/25 08:49:57;;;;;;;40.10;32.92;;;;;;;12.94;87.24;96953.63;5095811;28;20100;-72
2023/10/25 08:52:25;;;;;;;35.97;30.80;;;;;;;13.07;85.89;96947.53;5094508;28;20548;-72
2023/10/25 08:54:50;;;;;;;40.78;31.85;;;;;;;13.05;86.55;96955.09;5078368;28;20026;-71
2023/10/25 08:57:17;;;;;;;69.88;49.20;;;;;;;12.75;86.81;96941.97;5131151;27;20023;-72
2023/10/25 08:59:43;;;;;;;96.15;65.53;;;;;;;12.86;86.33;96940.78;5109388;28;20433;-71
2023/10/25 09:02:10;;;;;;;131.98;87.18;;;;;;;12.90;86.06;96939.91;5085124;27;20053;-71
2023/10/25 09:04:36;;;;;;;87.47;58.47;;;;;;;12.87;85.59;96939.66;5116095;27;20496;-72
2023/10/25 09:07:01;;;;;;;82.38;58.25;;;;;;;12.91;85.52;96937.97;5136535;27;20067;-71
2023/10/25 09:09:38;;;;;;;53.50;42.35;;;;;;;12.95;84.74;96939.81;5115906;27;20118;-71
2023/10/25 09:12:04;;;;;;;36.47;30.83;;;;;;;12.81;85.04;96938.13;5115446;27;20038;-71
2023/10/25 09:14:45;;;;;;;32.70;29.15;;;;;;;12.85;85.01;96939.16;5115135;27;20031;-71
2023/10/25 09:17:10;;;;;;;31.10;26.27;;;;;;;12.85;85.26;96922.94;5134086;27;20023;-72
2023/10/25 09:19:35;;;;;;;27.33;24.42;;;;;;;12.97;84.55;96923.34;5115510;27;20027;-72
2023/10/25 09:22:22;;;;;;;26.60;23.58;;;;;;;12.97;84.99;96917.94;5133605;27;20031;-72
2023/10/25 09:24:51;;;;;;;;;;;;;;;12.74;85.99;96916.06;5112488;28;20051;-72
2023/10/25 09:27:20;;;;;;;26.98;23.92;;;;;;;13.10;85.04;96914.53;5094973;28;20011;-72
2023/10/25 09:29:47;;;;;;;24.38;21.55;;;;;;;12.99;85.17;96903.03;5078132;28;20047;-72
2023/10/25 09:32:12;;;;;;;25.25;22.17;;;;;;;12.99;85.44;96892.22;5072574;28;20059;-71
2023/10/25 09:34:38;;;;;;;23.95;20.45;;;;;;;12.99;84.91;96896.81;5089404;28;20036;-74
2023/10/25 09:37:04;;;;;;;22.05;19.58;;;;;;;13.08;84.58;96895.91;5093234;28;20066;-72
2023/10/25 09:39:35;;;;;;;21.95;19.65;;;;;;;13.15;84.92;96895.53;5092845;28;20435;-71
2023/10/25 09:42:06;;;;;;;21.40;18.55;;;;;;;13.13;84.03;96878.81;5092893;28;20055;-72
2023/10/25 09:44:45;;;;;;;21.90;18.83;;;;;;;13.13;84.20;96884.22;5084674;27;20080;-72
2023/10/25 09:47:11;;;;;;;22.02;19.45;;;;;;;13.10;84.60;96882.09;5059703;28;20405;-72
2023/10/25 09:49:42;;;;;;;23.65;19.70;;;;;;;13.12;84.82;96885.28;5092749;28;20112;-72
2023/10/25 09:52:17;;;;;;;21.77;18.55;;;;;;;13.06;84.44;96878.38;5074717;28;20040;-72
2023/10/25 09:54:48;;;;;;;23.77;21.30;;;;;;;12.95;84.03;96863.38;5095067;28;20053;-72
2023/10/25 09:57:14;;;;;;;20.52;18.25;;;;;;;13.10;84.34;96871.28;5095992;28;20027;-72
2023/10/25 09:59:39;;;;;;;19.65;17.65;;;;;;;13.16;84.57;96859.31;5095284;28;20108;-72
2023/10/25 10:02:07;;;;;;;20.52;18.33;;;;;;;13.39;84.05;96866.50;5093285;28;20106;-72
2023/10/25 10:04:42;;;;;;;20.17;18.00;;;;;;;13.50;83.91;96881.47;5078485;28;20032;-72
2023/10/25 10:07:22;;;;;;;18.13;16.30;;;;;;;13.53;84.17;96880.91;5072298;28;20403;-72
2023/10/25 10:09:54;;;;;;;19.48;17.58;;;;;;;13.62;83.64;96873.72;5114386;27;20273;-72
2023/10/25 10:12:20;;;;;;;20.50;17.23;;;;;;;13.58;83.68;96859.16;5093867;28;20025;-71
2023/10/25 10:14:45;;;;;;;19.40;17.40;;;;;;;13.47;83.91;96848.78;5072432;28;20493;-72
2023/10/25 10:17:16;;;;;;;17.88;16.08;;;;;;;13.49;83.92;96836.59;5092606;28;20134;-72
2023/10/25 10:20:03;;;;;;;18.00;16.15;;;;;;;13.57;83.14;96833.22;5093153;28;20052;-71
2023/10/25 10:22:29;;;;;;;18.27;16.35;;;;;;;13.64;83.58;96830.94;5078542;28;20492;-71
2023/10/25 10:25:00;;;;;;;17.45;15.68;;;;;;;13.75;83.22;96816.13;5072189;28;20090;-72
2023/10/25 10:27:40;;;;;;;16.52;14.77;;;;;;;13.97;82.95;96817.34;5091538;28;20060;-71
2023/10/25 10:30:29;;;;;;;15.90;14.30;;;;;;;14.15;82.85;96811.03;5070760;28;20043;-71
2023/10/25 10:32:55;;;;;;;13.85;12.10;;;;;;;14.18;82.20;96796.91;5074811;28;20073;-72
2023/10/25 10:35:23;;;;;;;13.07;10.90;;;;;;;14.28;81.65;96788.59;5077346;28;20028;-71
2023/10/25 10:37:56;;;;;;;10.85;9.68;;;;;;;14.50;81.21;96796.78;5077678;28;20054;-72
2023/10/25 10:40:21;;;;;;;10.48;8.38;;;;;;;14.62;80.53;96794.38;5092519;28;20043;-72
2023/10/25 10:42:47;;;;;;;8.23;7.40;;;;;;;14.47;80.25;96781.13;5095161;28;20038;-72
2023/10/25 10:45:14;;;;;;;8.30;7.50;;;;;;;14.64;79.89;96781.31;5095070;28;20019;-72
2023/10/25 10:47:39;;;;;;;7.95;7.15;;;;;;;14.74;79.45;96781.09;5092365;28;20571;-71
2023/10/25 10:50:18;;;;;;;7.97;7.18;;;;;;;14.70;79.52;96763.84;5093427;28;20057;-71
2023/10/25 10:52:45;;;;;;;6.65;6.05;;;;;;;14.82;78.46;96774.94;5093470;28;20039;-71
2023/10/25 10:55:15;;;;;;;7.32;6.30;;;;;;;14.89;78.03;96767.19;5093112;28;20110;-72
2023/10/25 10:57:40;;;;;;;6.78;6.22;;;;;;;14.92;77.99;96777.44;5092925;28;20042;-72
2023/10/25 11:00:08;;;;;;;8.00;6.72;;;;;;;14.74;77.90;96764.03;5093116;28;20031;-71
2023/10/25 11:02:37;;;;;;;7.72;7.00;;;;;;;14.98;77.40;96768.06;5093091;28;20403;-72
2023/10/25 11:05:07;;;;;;;7.97;7.20;;;;;;;15.04;77.21;96737.00;5092179;28;20478;-72
2023/10/25 11:07:33;;;;;;;8.10;7.35;;;;;;;15.17;76.60;96746.97;5097496;28;20402;-72
2023/10/25 11:09:59;;;;;;;7.50;6.43;;;;;;;15.23;76.36;96740.34;5111600;28;20034;-72
2023/10/25 11:12:24;;;;;;;7.28;6.57;;;;;;;15.32;75.87;96742.28;5111403;28;20122;-72
2023/10/25 11:14:49;;;;;;;7.90;6.20;;;;;;;15.31;76.11;96719.00;5093359;28;20038;-72